createdAt,value
2023-04-08T00:01:46.526Z,98379.19
2023-04-08T00:04:52.246Z,98380.16
2023-04-08T00:07:58.741Z,98389.69
2023-04-08T00:11:04.575Z,98383.66
2023-04-08T00:14:13.718Z,98384.59
2023-04-08T00:17:19.206Z,98393.97
2023-04-08T00:20:28.167Z,98391.31
2023-04-08T00:23:33.679Z,98393.97
2023-04-08T00:26:40.000Z,98404.41
2023-04-08T00:29:48.535Z,98407.78
2023-04-08T00:32:54.998Z,98407.13
2023-04-08T00:36:00.556Z,98403.63
2023-04-08T00:39:08.113Z,98414.06
2023-04-08T00:42:13.663Z,98402.00
2023-04-08T00:45:23.043Z,98413.16
2023-04-08T00:48:28.801Z,98408.06
2023-04-08T00:51:36.818Z,98409.88
2023-04-08T00:54:42.390Z,98401.25
2023-04-08T00:57:49.808Z,98401.53
2023-04-08T01:01:08.898Z,98411.16
2023-04-08T01:04:32.378Z,98417.31
2023-04-08T01:07:44.753Z,98426.28
2023-04-08T01:10:59.806Z,98422.59
2023-04-08T01:14:13.129Z,98425.44
2023-04-08T01:17:26.031Z,98429.56
2023-04-08T01:20:33.802Z,98422.78
2023-04-08T01:23:57.697Z,98428.09
2023-04-08T01:27:10.082Z,98431.69
2023-04-08T01:30:18.047Z,98421.34
2023-04-08T01:33:27.330Z,98432.47
2023-04-08T01:36:36.312Z,98429.06
2023-04-08T01:39:46.028Z,98432.72
2023-04-08T01:42:59.772Z,98441.03
2023-04-08T01:46:06.286Z,98432.53
2023-04-08T01:49:14.326Z,98438.72
2023-04-08T01:52:24.279Z,98434.56
2023-04-08T01:55:32.013Z,98437.34
2023-04-08T01:58:50.366Z,98442.84
2023-04-08T02:01:57.421Z,98446.44
2023-04-08T02:05:03.950Z,98341.34
2023-04-08T02:08:10.323Z,98438.84
2023-04-08T02:11:16.711Z,98444.91
2023-04-08T02:14:26.433Z,98439.81
2023-04-08T02:17:47.534Z,98448.56
2023-04-08T02:21:05.289Z,98459.81
2023-04-08T02:24:18.690Z,98455.00
2023-04-08T02:27:28.125Z,98453.47
2023-04-08T02:30:41.159Z,98451.16
2023-04-08T02:33:47.910Z,98452.94
2023-04-08T02:36:55.407Z,98458.28
2023-04-08T02:40:01.277Z,98452.38
2023-04-08T02:43:07.745Z,98454.22
2023-04-08T02:46:16.667Z,98458.56
2023-04-08T02:49:23.067Z,98459.50
2023-04-08T02:52:28.784Z,98457.34
2023-04-08T02:55:35.364Z,98466.63
2023-04-08T02:58:41.115Z,98469.22
2023-04-08T03:01:50.628Z,98473.53
2023-04-08T03:04:56.336Z,98476.31
2023-04-08T03:08:02.707Z,98482.59
2023-04-08T03:11:08.571Z,98474.06
2023-04-08T03:14:15.108Z,98481.25
2023-04-08T03:17:24.101Z,98489.84
2023-04-08T03:20:30.405Z,98481.97
2023-04-08T03:23:36.209Z,98478.44
2023-04-08T03:26:42.589Z,98487.84
2023-04-08T03:29:48.202Z,98480.75
2023-04-08T03:32:57.360Z,98487.75
2023-04-08T03:36:03.226Z,98495.31
2023-04-08T03:39:10.614Z,98493.41
2023-04-08T03:42:16.193Z,98497.72
2023-04-08T03:45:22.817Z,98504.41
2023-04-08T03:48:31.382Z,98504.22
2023-04-08T03:51:38.018Z,98503.16
2023-04-08T03:54:43.668Z,98500.50
2023-04-08T03:57:50.351Z,98503.78
2023-04-08T04:00:56.820Z,98513.88
2023-04-08T04:04:06.106Z,98513.66
2023-04-08T04:07:11.660Z,98516.09
2023-04-08T04:10:18.221Z,98523.84
2023-04-08T04:13:23.695Z,98519.41
2023-04-08T04:16:32.723Z,98527.25
2023-04-08T04:19:41.313Z,98535.13
2023-04-08T04:22:48.174Z,98537.66
2023-04-08T04:25:53.652Z,98545.53
2023-04-08T04:28:59.940Z,98530.97
2023-04-08T04:32:05.575Z,98541.06
2023-04-08T04:35:15.188Z,98542.75
2023-04-08T04:38:20.738Z,98540.03
2023-04-08T04:41:27.849Z,98552.19
2023-04-08T04:44:33.524Z,98542.75
2023-04-08T04:47:39.911Z,98552.47
2023-04-08T04:50:48.381Z,98556.78
2023-04-08T04:53:54.939Z,98562.00
2023-04-08T04:57:00.406Z,98560.19
2023-04-08T05:00:08.645Z,98558.28
2023-04-08T05:03:14.353Z,98563.25
2023-04-08T05:06:23.607Z,98563.88
2023-04-08T05:09:29.378Z,98565.34
2023-04-08T05:12:35.930Z,98573.81
2023-04-08T05:15:41.468Z,98568.72
2023-04-08T05:18:47.873Z,98579.72
2023-04-08T05:21:56.210Z,98589.06
2023-04-08T05:25:02.560Z,98584.50
2023-04-08T05:28:08.818Z,98583.78
2023-04-08T05:31:15.197Z,98589.16
2023-04-08T05:34:23.460Z,98595.44
2023-04-08T05:37:33.098Z,98596.31
2023-04-08T05:40:38.585Z,98604.28
2023-04-08T05:43:44.884Z,98593.03
2023-04-08T05:46:50.899Z,98596.28
2023-04-08T05:49:57.346Z,98609.16
2023-04-08T05:53:05.602Z,98610.00
2023-04-08T05:56:12.294Z,98615.22
2023-04-08T05:59:17.782Z,98616.94
2023-04-08T06:02:24.158Z,98617.88
2023-04-08T06:05:30.073Z,98612.44
2023-04-08T06:08:39.153Z,98622.72
2023-04-08T06:11:44.728Z,98625.84
2023-04-08T06:14:51.841Z,98625.63
2023-04-08T06:17:57.349Z,98628.88
2023-04-08T06:21:03.664Z,98632.22
2023-04-08T06:24:12.362Z,98637.25
2023-04-08T06:27:18.752Z,98637.19
2023-04-08T06:30:24.979Z,98635.03
2023-04-08T06:33:31.434Z,98637.19
2023-04-08T06:36:37.157Z,98643.06
2023-04-08T06:39:47.456Z,98651.47
2023-04-08T06:42:52.905Z,98653.47
2023-04-08T06:46:13.198Z,98665.41
2023-04-08T06:49:18.997Z,98662.81
2023-04-08T06:52:25.937Z,98673.16
2023-04-08T06:55:34.142Z,98667.63
2023-04-08T06:58:40.483Z,98663.84
2023-04-08T07:01:47.008Z,98663.28
2023-04-08T07:04:53.517Z,98663.56
2023-04-08T07:07:59.232Z,98666.53
2023-04-08T07:11:08.673Z,98663.75
2023-04-08T07:14:15.340Z,98672.53
2023-04-08T07:17:21.716Z,98675.34
2023-04-08T07:20:28.051Z,98672.00
2023-04-08T07:23:34.438Z,98686.09
2023-04-08T07:26:43.056Z,98684.69
2023-04-08T07:29:49.361Z,98686.19
2023-04-08T07:32:58.022Z,98674.69
2023-04-08T07:36:05.669Z,98687.47
2023-04-08T07:39:11.185Z,98691.78
2023-04-08T07:42:20.317Z,98705.13
2023-04-08T07:45:25.865Z,98694.03
2023-04-08T07:48:32.872Z,98704.63
2023-04-08T07:51:38.631Z,98703.94
2023-04-08T07:54:45.151Z,98708.44
2023-04-08T07:57:53.525Z,98698.75
2023-04-08T08:01:00.522Z,98699.41
2023-04-08T08:04:07.059Z,98696.13
2023-04-08T08:07:13.790Z,98712.44
2023-04-08T08:10:19.381Z,98698.13
2023-04-08T08:13:28.810Z,98710.81
2023-04-08T08:16:35.045Z,98701.63
2023-04-08T08:19:41.623Z,98716.53
2023-04-08T08:22:56.720Z,98709.50
2023-04-08T08:26:04.695Z,98716.03
2023-04-08T08:29:12.986Z,98714.22
2023-04-08T08:32:19.324Z,98709.13
2023-04-08T08:35:24.779Z,98713.28
2023-04-08T08:38:31.555Z,98711.72
2023-04-08T08:41:38.424Z,98708.88
2023-04-08T08:44:47.985Z,98711.69
2023-04-08T08:47:54.716Z,98725.16
2023-04-08T08:51:01.463Z,98723.56
2023-04-08T08:54:07.123Z,98721.91
2023-04-08T08:57:21.863Z,98744.00
2023-04-08T09:00:39.280Z,98738.72
2023-04-08T09:03:46.241Z,98744.47
2023-04-08T09:07:07.982Z,98748.66
2023-04-08T09:10:14.677Z,98745.34
2023-04-08T09:13:20.181Z,98745.28
2023-04-08T09:16:29.610Z,98754.13
2023-04-08T09:19:35.160Z,98759.06
2023-04-08T09:23:02.509Z,98754.91
2023-04-08T09:26:12.760Z,98757.31
2023-04-08T09:32:51.995Z,98764.81
2023-04-08T09:35:58.705Z,98766.91
2023-04-08T09:39:04.536Z,98769.66
2023-04-08T09:42:16.682Z,98758.16
2023-04-08T09:45:23.082Z,98761.41
2023-04-08T09:48:43.956Z,98764.25
2023-04-08T09:52:01.212Z,98716.53
2023-04-08T09:55:12.515Z,98757.94
2023-04-08T09:58:27.867Z,98759.66
2023-04-08T10:01:43.216Z,98770.75
2023-04-08T10:04:58.810Z,98766.84
2023-04-08T10:08:05.211Z,98763.69
2023-04-08T10:11:11.249Z,98760.44
2023-04-08T10:14:17.908Z,98773.84
2023-04-08T10:17:36.971Z,98785.81
2023-04-08T10:20:51.924Z,98770.63
2023-04-08T10:24:01.681Z,98729.44
2023-04-08T10:27:43.700Z,98767.50
2023-04-08T10:30:51.370Z,98727.38
2023-04-08T10:33:58.363Z,98769.88
2023-04-08T10:37:06.795Z,98781.38
2023-04-08T10:40:23.146Z,98774.13
2023-04-08T10:43:28.613Z,98770.22
2023-04-08T10:46:41.733Z,98775.78
2023-04-08T10:49:48.688Z,98771.97
2023-04-08T10:52:58.213Z,98779.34
2023-04-08T10:56:13.693Z,98781.19
2023-04-08T10:59:32.415Z,98784.75
2023-04-08T11:02:41.242Z,98776.19
2023-04-08T11:05:48.181Z,98772.25
2023-04-08T11:08:56.391Z,98782.91
2023-04-08T11:12:03.753Z,98768.19
2023-04-08T11:15:10.902Z,98774.88
2023-04-08T11:18:18.353Z,98776.59
2023-04-08T11:21:29.903Z,98781.91
2023-04-08T11:24:40.366Z,98774.31
2023-04-08T11:27:46.715Z,98774.59
2023-04-08T11:30:54.301Z,98777.69
2023-04-08T11:33:59.829Z,98765.31
2023-04-08T11:37:07.112Z,98787.69
2023-04-08T11:40:16.767Z,98782.53
2023-04-08T11:43:23.694Z,98777.19
2023-04-08T11:46:29.407Z,98783.44
2023-04-08T11:49:48.449Z,98779.25
2023-04-08T11:52:57.344Z,98785.53
2023-04-08T11:56:26.830Z,98780.09
2023-04-08T11:59:32.523Z,98778.72
2023-04-08T12:02:39.314Z,98775.97
2023-04-08T12:05:46.926Z,98777.19
2023-04-08T12:08:53.756Z,98775.00
2023-04-08T12:12:02.365Z,98780.50
2023-04-08T12:15:11.469Z,98781.88
2023-04-08T12:18:17.024Z,98777.03
2023-04-08T12:21:23.681Z,98775.59
2023-04-08T12:24:29.455Z,98778.81
2023-04-08T12:27:38.577Z,98780.19
2023-04-08T12:30:44.077Z,98775.59
2023-04-08T12:33:50.824Z,98765.06
2023-04-08T12:36:57.298Z,98778.50
2023-04-08T12:40:03.900Z,98776.78
2023-04-08T12:43:12.259Z,98775.94
2023-04-08T12:46:18.704Z,98774.28
2023-04-08T12:49:24.547Z,98777.78
2023-04-08T12:52:30.976Z,98779.84
2023-04-08T12:55:37.003Z,98784.00
2023-04-08T12:58:46.103Z,98791.41
2023-04-08T13:01:51.622Z,98785.63
2023-04-08T13:04:58.021Z,98781.47
2023-04-08T13:08:03.537Z,98788.25
2023-04-08T13:11:11.386Z,98788.34
2023-04-08T13:14:19.636Z,98790.38
2023-04-08T13:17:26.159Z,98788.06
2023-04-08T13:20:31.627Z,98783.59
2023-04-08T13:23:38.545Z,98783.41
2023-04-08T13:26:44.001Z,98794.94
2023-04-08T13:29:53.314Z,98789.47
2023-04-08T13:32:58.856Z,98800.38
2023-04-08T13:36:06.031Z,98792.31
2023-04-08T13:39:11.554Z,98806.81
2023-04-08T13:42:17.859Z,98795.38
2023-04-08T13:45:27.019Z,98794.47
2023-04-08T13:48:33.433Z,98790.91
2023-04-08T13:51:39.116Z,98794.69
2023-04-08T13:54:45.492Z,98785.75
2023-04-08T13:57:51.421Z,98785.44
2023-04-08T14:01:00.860Z,98786.19
2023-04-08T14:04:07.074Z,98778.19
2023-04-08T14:07:13.486Z,98792.47
2023-04-08T14:10:19.214Z,98791.44
2023-04-08T14:13:25.914Z,98793.00
2023-04-08T14:16:35.973Z,98792.38
2023-04-08T14:19:42.448Z,98786.22
2023-04-08T14:22:47.972Z,98782.59
2023-04-08T14:25:54.640Z,98783.06
2023-04-08T14:29:00.348Z,98786.13
2023-04-08T14:32:09.817Z,98784.03
2023-04-08T14:35:15.347Z,98784.78
2023-04-08T14:38:21.935Z,98778.63
2023-04-08T14:41:27.984Z,98772.94
2023-04-08T14:44:34.370Z,98781.19
2023-04-08T14:47:42.651Z,98781.28
2023-04-08T14:50:49.517Z,98786.28
2023-04-08T14:53:54.944Z,98775.75
2023-04-08T14:57:02.331Z,98779.16
2023-04-08T15:00:10.217Z,98776.97
2023-04-08T15:03:19.695Z,98778.34
2023-04-08T15:06:34.960Z,98770.38
2023-04-08T15:09:42.174Z,98779.88
2023-04-08T15:12:47.895Z,98782.91
2023-04-08T15:15:54.259Z,98783.91
2023-04-08T15:19:02.644Z,98773.25
2023-04-08T15:22:08.999Z,98781.88
2023-04-08T15:25:14.736Z,98782.06
2023-04-08T15:28:21.185Z,98788.56
2023-04-08T15:31:26.682Z,98789.16
2023-04-08T15:34:36.069Z,98782.44
2023-04-08T15:37:41.657Z,98784.16
2023-04-08T15:40:48.320Z,98788.13
2023-04-08T15:43:56.457Z,98790.59
2023-04-08T15:47:03.109Z,98791.53
2023-04-08T15:50:13.068Z,98788.63
2023-04-08T15:53:19.444Z,98791.81
2023-04-08T15:56:25.403Z,98789.88
2023-04-08T15:59:32.669Z,98798.56
2023-04-08T16:02:38.386Z,98787.00
2023-04-08T16:05:47.827Z,98787.84
2023-04-08T16:08:53.427Z,98791.53
2023-04-08T16:12:00.242Z,98782.06
2023-04-08T16:15:05.877Z,98794.00
2023-04-08T16:18:13.732Z,98799.00
2023-04-08T16:21:22.101Z,98798.00
2023-04-08T16:24:28.505Z,98805.03
2023-04-08T16:27:33.962Z,98800.88
2023-04-08T16:30:43.810Z,98805.09
2023-04-08T16:33:49.673Z,98804.50
2023-04-08T16:36:59.113Z,98804.06
2023-04-08T16:40:04.763Z,98809.63
2023-04-08T16:43:12.698Z,98807.78
2023-04-08T16:46:21.071Z,98812.34
2023-04-08T16:49:28.059Z,98809.34
2023-04-08T16:52:36.608Z,98814.00
2023-04-08T16:55:42.968Z,98813.31
2023-04-08T16:58:48.720Z,98824.66
2023-04-08T17:01:55.322Z,98825.31
2023-04-08T17:05:01.091Z,98828.97
2023-04-08T17:08:10.723Z,98838.84
2023-04-08T17:11:18.485Z,98841.00
2023-04-08T17:14:24.921Z,98847.72
2023-04-08T17:17:30.852Z,98845.47
2023-04-08T17:20:37.832Z,98841.09
2023-04-08T17:23:46.248Z,98844.91
2023-04-08T17:26:53.105Z,98849.63
2023-04-08T17:29:59.356Z,98846.41
2023-04-08T17:33:05.710Z,98833.66
2023-04-08T17:36:12.360Z,98851.03
2023-04-08T17:39:21.969Z,98866.00
2023-04-08T17:42:27.733Z,98863.50
2023-04-08T17:45:34.387Z,98859.94
2023-04-08T17:48:39.869Z,98855.66
2023-04-08T17:51:46.453Z,98861.19
2023-04-08T17:54:54.873Z,98874.03
2023-04-08T17:58:01.491Z,98876.50
2023-04-08T18:01:07.466Z,98876.25
2023-04-08T18:04:14.215Z,98873.72
2023-04-08T18:07:20.053Z,98871.69
2023-04-08T18:10:29.508Z,98878.03
2023-04-08T18:13:35.253Z,98876.31
2023-04-08T18:16:41.763Z,98881.41
2023-04-08T18:19:47.513Z,98883.88
2023-04-08T18:22:54.114Z,98888.22
2023-04-08T18:26:02.431Z,98893.31
2023-04-08T18:29:08.881Z,98896.72
2023-04-08T18:32:14.731Z,98898.78
2023-04-08T18:35:21.384Z,98899.84
2023-04-08T18:38:27.076Z,98887.97
2023-04-08T18:41:37.664Z,98894.22
2023-04-08T18:44:43.439Z,98909.25
2023-04-08T18:47:49.988Z,98905.13
2023-04-08T18:50:56.248Z,98903.41
2023-04-08T18:54:02.582Z,98903.13
2023-04-08T18:57:11.057Z,98913.63
2023-04-08T19:00:17.723Z,98906.53
2023-04-08T19:03:23.753Z,98913.56
2023-04-08T19:06:30.753Z,98908.53
2023-04-08T19:09:36.399Z,98911.78
2023-04-08T19:12:46.915Z,98906.66
2023-04-08T19:15:52.391Z,98913.63
2023-04-08T19:18:58.884Z,98916.38
2023-04-08T19:22:06.246Z,98918.09
2023-04-08T19:25:13.305Z,98913.28
2023-04-08T19:28:21.548Z,98925.69
2023-04-08T19:31:27.962Z,98920.88
2023-04-08T19:34:33.586Z,98915.09
2023-04-08T19:37:39.914Z,98910.06
2023-04-08T19:40:45.560Z,98913.66
2023-04-08T19:43:54.878Z,98912.22
2023-04-08T19:47:00.556Z,98908.34
2023-04-08T19:50:08.213Z,98900.91
2023-04-08T19:53:13.781Z,98897.31
2023-04-08T19:56:20.176Z,98904.16
2023-04-08T19:59:28.790Z,98904.81
2023-04-08T20:02:35.201Z,98912.38
2023-04-08T20:05:40.940Z,98900.72
2023-04-08T20:08:47.478Z,98911.81
2023-04-08T20:11:53.242Z,98893.47
2023-04-08T20:15:02.512Z,98904.88
2023-04-08T20:18:08.181Z,98888.88
2023-04-08T20:21:15.649Z,98899.44
2023-04-08T20:24:21.947Z,98898.75
2023-04-08T20:27:28.356Z,98893.81
2023-04-08T20:30:36.668Z,98893.97
2023-04-08T20:33:44.404Z,98894.72
2023-04-08T20:36:49.847Z,98895.38
2023-04-08T20:39:56.563Z,98895.25
2023-04-08T20:43:01.981Z,98893.25
2023-04-08T20:46:11.434Z,98893.13
2023-04-08T20:49:19.317Z,98904.09
2023-04-08T20:52:25.882Z,98912.47
2023-04-08T20:55:31.341Z,98911.34
2023-04-08T20:58:38.065Z,98905.88
2023-04-08T21:01:46.556Z,98902.16
2023-04-08T21:04:53.177Z,98908.13
2023-04-08T21:07:58.926Z,98912.38
2023-04-08T21:11:05.530Z,98909.53
2023-04-08T21:14:11.364Z,98913.91
2023-04-08T21:17:20.595Z,98921.44
2023-04-08T21:20:26.224Z,98920.50
2023-04-08T21:23:32.758Z,98927.38
2023-04-08T21:26:38.290Z,98929.09
2023-04-08T21:29:44.879Z,98926.50
2023-04-08T21:32:53.134Z,98928.38
2023-04-08T21:35:59.749Z,98930.06
2023-04-08T21:39:05.310Z,98923.97
2023-04-08T21:42:11.602Z,98930.22
2023-04-08T21:45:18.128Z,98932.13
2023-04-08T21:48:27.223Z,98936.75
2023-04-08T21:51:32.726Z,98931.63
2023-04-08T21:54:39.447Z,98931.84
2023-04-08T21:57:44.968Z,98921.72
2023-04-08T22:00:51.802Z,98919.97
2023-04-08T22:04:00.242Z,98916.63
2023-04-08T22:07:06.662Z,98919.00
2023-04-08T22:10:13.406Z,98930.38
2023-04-08T22:13:20.913Z,98938.00
2023-04-08T22:16:26.745Z,98932.09
2023-04-08T22:19:35.892Z,98939.66
2023-04-08T22:22:41.349Z,98922.66
2023-04-08T22:25:47.697Z,98928.25
2023-04-08T22:28:53.401Z,98918.63
2023-04-08T22:31:59.995Z,98913.56
2023-04-08T22:35:10.012Z,98905.88
2023-04-08T22:38:16.331Z,98902.97
2023-04-08T22:41:23.613Z,98907.22
2023-04-08T22:44:30.145Z,98903.69
2023-04-08T22:47:36.689Z,98906.38
2023-04-08T22:50:45.871Z,98902.19
2023-04-08T22:53:51.820Z,98905.56
2023-04-08T22:56:58.152Z,98896.59
2023-04-08T23:00:05.066Z,98907.84
2023-04-08T23:03:11.608Z,98900.53
2023-04-08T23:06:20.128Z,98900.41
2023-04-08T23:09:27.461Z,98905.81
2023-04-08T23:12:32.888Z,98910.13
2023-04-08T23:15:39.236Z,98905.75
2023-04-08T23:18:44.698Z,98923.41
2023-04-08T23:21:53.968Z,98932.06
2023-04-08T23:24:59.658Z,98924.84
2023-04-08T23:28:05.987Z,98926.56
2023-04-08T23:31:11.644Z,98916.22
2023-04-08T23:34:17.991Z,98897.28
2023-04-08T23:37:26.322Z,98885.31
2023-04-08T23:40:32.631Z,98867.34
2023-04-08T23:43:38.566Z,98877.78
2023-04-08T23:46:44.935Z,98880.59
2023-04-08T23:49:50.805Z,98885.81
2023-04-08T23:52:59.942Z,98890.94
2023-04-08T23:56:10.016Z,98881.38
2023-04-08T23:59:16.429Z,98879.75
